createdAt,value
2019-04-29T00:02:44.484Z,84.03
2019-04-29T00:07:50.165Z,85.44
2019-04-29T00:12:55.934Z,84.61
2019-04-29T00:18:03.104Z,85.02
2019-04-29T00:23:08.583Z,84.87
2019-04-29T00:28:14.463Z,84.21
2019-04-29T00:33:19.963Z,84.26
2019-04-29T00:38:43.543Z,84.75
2019-04-29T00:43:50.563Z,84.92
2019-04-29T00:48:56.003Z,84.50
2019-04-29T00:54:03.145Z,85.24
2019-04-29T00:59:08.724Z,84.69
2019-04-29T01:04:14.403Z,84.68
2019-04-29T01:09:20.694Z,84.85
2019-04-29T01:14:26.125Z,85.35
2019-04-29T01:19:31.603Z,85.08
2019-04-29T01:24:37.103Z,85.66
2019-04-29T01:29:42.723Z,85.22
2019-04-29T01:34:55.549Z,85.60
2019-04-29T01:40:02.683Z,85.73
2019-04-29T01:45:09.369Z,85.28
2019-04-29T01:50:14.844Z,86.18
2019-04-29T01:55:20.324Z,85.57
2019-04-29T02:00:25.806Z,86.30
2019-04-29T02:05:31.249Z,86.17
2019-04-29T02:10:37.003Z,86.23
2019-04-29T02:15:42.484Z,86.23
2019-04-29T02:20:48.013Z,85.61
2019-04-29T02:25:53.484Z,85.56
2019-04-29T02:31:00.687Z,85.24
2019-04-29T02:36:06.227Z,85.63
2019-04-29T02:41:13.546Z,84.96
2019-04-29T02:46:19.144Z,85.04
2019-04-29T02:51:44.326Z,85.14
2019-04-29T02:56:51.390Z,85.16
2019-04-29T03:02:16.245Z,85.09
2019-04-29T03:07:22.530Z,85.49
2019-04-29T03:12:28.111Z,85.74
2019-04-29T03:17:33.644Z,86.60
2019-04-29T03:22:40.923Z,86.27
2019-04-29T03:27:46.436Z,87.93
2019-04-29T03:32:52.242Z,87.62
2019-04-29T03:37:59.005Z,87.44
2019-04-29T03:43:04.491Z,87.72
2019-04-29T03:48:09.985Z,87.86
2019-04-29T03:53:15.746Z,86.86
2019-04-29T03:58:21.567Z,86.40
2019-04-29T04:03:28.610Z,87.06
2019-04-29T04:08:35.687Z,86.82
2019-04-29T04:13:41.253Z,86.25
2019-04-29T04:18:47.412Z,85.86
2019-04-29T04:23:52.995Z,86.20
2019-04-29T04:28:58.605Z,86.60
2019-04-29T04:34:05.163Z,86.43
2019-04-29T04:39:10.627Z,86.83
2019-04-29T04:44:16.146Z,85.44
2019-04-29T04:49:21.683Z,86.05
2019-04-29T04:54:27.134Z,86.88
2019-04-29T04:59:32.702Z,84.31
2019-04-29T05:04:38.183Z,83.47
2019-04-29T05:09:43.784Z,84.20
2019-04-29T05:14:49.329Z,80.88
2019-04-29T05:19:54.829Z,78.82
2019-04-29T05:25:00.309Z,78.68
2019-04-29T05:30:06.779Z,77.18
2019-04-29T05:35:20.756Z,75.89
2019-04-29T05:40:46.990Z,73.48
2019-04-29T05:46:10.287Z,73.54
2019-04-29T05:51:17.403Z,74.95
2019-04-29T05:56:22.926Z,78.37
2019-04-29T06:01:29.972Z,74.71
2019-04-29T06:06:35.644Z,73.48
2019-04-29T06:11:41.205Z,69.98
2019-04-29T06:16:46.785Z,72.90
2019-04-29T06:21:52.515Z,68.13
2019-04-29T06:26:59.116Z,68.57
2019-04-29T06:32:04.603Z,65.17
2019-04-29T06:37:10.146Z,59.91
2019-04-29T06:42:19.603Z,58.64
2019-04-29T06:47:22.785Z,54.67
2019-04-29T06:52:28.298Z,56.50
2019-04-29T06:57:33.781Z,51.25
2019-04-29T07:02:39.313Z,49.72
2019-04-29T07:07:44.764Z,55.20
2019-04-29T07:12:50.264Z,51.20
2019-04-29T07:17:55.865Z,57.56
2019-04-29T07:23:02.465Z,56.44
2019-04-29T07:28:08.124Z,55.02
2019-04-29T07:33:13.637Z,56.28
2019-04-29T07:38:19.145Z,54.13
2019-04-29T07:43:24.924Z,56.52
2019-04-29T07:48:30.436Z,56.87
2019-04-29T07:53:44.799Z,54.80
2019-04-29T07:58:43.105Z,55.97
2019-04-29T08:03:48.665Z,56.26
2019-04-29T08:08:55.705Z,57.19
2019-04-29T08:14:02.083Z,54.90
2019-04-29T08:19:07.545Z,57.59
2019-04-29T08:24:15.933Z,57.04
2019-04-29T08:29:20.250Z,56.09
2019-04-29T08:34:25.931Z,56.23
2019-04-29T08:39:31.407Z,55.78
2019-04-29T08:44:44.475Z,57.27
2019-04-29T08:49:50.332Z,57.58
2019-04-29T08:54:58.962Z,54.32
2019-04-29T09:00:07.573Z,57.91
2019-04-29T09:05:13.615Z,52.23
2019-04-29T09:10:19.373Z,55.07
2019-04-29T09:15:24.821Z,54.28
2019-04-29T09:20:30.290Z,51.78
2019-04-29T09:25:46.450Z,53.23
2019-04-29T09:30:51.893Z,52.96
2019-04-29T09:35:57.433Z,53.15
2019-04-29T09:41:08.460Z,51.79
2019-04-29T09:46:18.414Z,54.20
2019-04-29T09:51:27.973Z,48.13
2019-04-29T09:56:31.125Z,48.15
2019-04-29T10:01:44.184Z,49.98
2019-04-29T10:06:51.234Z,48.09
2019-04-29T10:11:56.824Z,49.18
2019-04-29T10:17:06.760Z,52.13
2019-04-29T10:22:13.374Z,46.70
2019-04-29T10:27:18.834Z,50.89
2019-04-29T10:32:25.504Z,47.86
2019-04-29T10:37:32.674Z,46.11
2019-04-29T10:42:43.097Z,45.44
2019-04-29T10:47:56.170Z,50.04
2019-04-29T10:53:02.804Z,49.69
2019-04-29T10:58:08.698Z,45.72
2019-04-29T11:03:14.587Z,44.62
2019-04-29T11:08:21.943Z,46.32
2019-04-29T11:13:27.386Z,48.20
2019-04-29T11:18:33.177Z,47.38
2019-04-29T11:23:42.913Z,48.73
2019-04-29T11:28:51.266Z,44.29
2019-04-29T11:33:58.402Z,49.71
2019-04-29T11:39:09.007Z,49.97
2019-04-29T11:44:14.063Z,46.57
2019-04-29T11:49:21.135Z,50.22
2019-04-29T11:54:26.764Z,50.22
2019-04-29T11:59:33.828Z,47.21
2019-04-29T12:04:52.993Z,49.77
2019-04-29T12:10:02.306Z,47.80
2019-04-29T12:15:13.612Z,51.27
2019-04-29T12:20:26.543Z,49.47
2019-04-29T12:25:32.190Z,51.22
2019-04-29T12:30:42.203Z,50.40
2019-04-29T12:36:02.630Z,47.82
2019-04-29T12:41:30.176Z,49.71
2019-04-29T12:46:43.272Z,47.09
2019-04-29T12:51:48.868Z,47.28
2019-04-29T12:56:54.343Z,49.04
2019-04-29T13:02:07.609Z,49.42
2019-04-29T13:07:20.715Z,50.10
2019-04-29T13:12:30.252Z,50.18
2019-04-29T13:18:02.178Z,49.12
2019-04-29T13:23:00.553Z,48.97
2019-04-29T13:28:04.401Z,51.60
2019-04-29T13:33:16.561Z,49.08
2019-04-29T13:38:17.567Z,49.91
2019-04-29T13:43:25.972Z,51.58
2019-04-29T13:48:55.806Z,52.24
2019-04-29T13:53:59.097Z,53.16
2019-04-29T13:59:09.701Z,52.82
2019-04-29T14:04:13.258Z,51.42
2019-04-29T14:09:18.724Z,52.30
2019-04-29T14:14:24.677Z,51.87
2019-04-29T14:19:40.879Z,53.31
2019-04-29T14:24:38.726Z,50.96
2019-04-29T14:29:44.273Z,51.79
2019-04-29T14:34:51.354Z,50.88
2019-04-29T14:39:57.003Z,54.87
2019-04-29T14:45:22.024Z,53.32
2019-04-29T14:50:27.683Z,52.64
2019-04-29T14:55:33.170Z,53.31
2019-04-29T15:00:52.770Z,53.46
2019-04-29T15:05:58.393Z,54.51
2019-04-29T15:11:08.323Z,54.01
2019-04-29T15:16:14.148Z,57.19
2019-04-29T15:21:32.664Z,57.54
2019-04-29T15:26:34.889Z,57.98
2019-04-29T15:31:42.462Z,58.30
2019-04-29T15:36:47.625Z,57.46
2019-04-29T15:41:54.672Z,59.07
2019-04-29T15:47:00.545Z,58.43
2019-04-29T15:52:06.204Z,59.09
2019-04-29T15:57:15.490Z,57.92
2019-04-29T16:02:19.369Z,57.83
2019-04-29T16:07:35.525Z,58.34
2019-04-29T16:12:51.006Z,62.44
2019-04-29T16:17:54.956Z,59.97
2019-04-29T16:23:02.060Z,60.56
2019-04-29T16:28:08.254Z,62.15
2019-04-29T16:33:15.578Z,59.84
2019-04-29T16:38:21.227Z,60.20
2019-04-29T16:43:37.285Z,62.31
2019-04-29T16:48:42.964Z,64.94
2019-04-29T16:53:49.406Z,65.67
2019-04-29T16:58:55.297Z,65.86
2019-04-29T17:04:05.144Z,66.95
2019-04-29T17:09:13.666Z,70.65
2019-04-29T17:14:19.824Z,69.45
2019-04-29T17:19:25.327Z,72.65
2019-04-29T17:24:30.844Z,73.59
2019-04-29T17:29:49.568Z,75.76
2019-04-29T17:34:59.410Z,76.37
2019-04-29T17:40:02.373Z,77.70
2019-04-29T17:45:12.384Z,78.05
2019-04-29T17:50:29.569Z,78.32
2019-04-29T17:55:40.242Z,80.41
2019-04-29T18:00:56.150Z,81.46
2019-04-29T18:06:17.202Z,83.29
2019-04-29T18:11:20.568Z,83.52
2019-04-29T18:16:28.929Z,84.58
2019-04-29T18:21:52.332Z,84.53
2019-04-29T18:27:02.730Z,85.32
2019-04-29T18:32:08.363Z,85.66
2019-04-29T18:37:16.483Z,86.16
2019-04-29T18:42:21.129Z,85.91
2019-04-29T18:47:27.596Z,86.24
2019-04-29T18:52:35.136Z,85.56
2019-04-29T18:57:41.749Z,86.30
2019-04-29T19:02:52.475Z,86.74
2019-04-29T19:08:01.455Z,86.46
2019-04-29T19:13:07.074Z,86.84
2019-04-29T19:18:12.451Z,86.71
2019-04-29T19:23:22.400Z,86.31
2019-04-29T19:28:30.248Z,87.39
2019-04-29T19:33:35.108Z,87.06
2019-04-29T19:38:38.120Z,86.82
2019-04-29T19:43:43.773Z,86.83
2019-04-29T19:48:49.330Z,88.08
2019-04-29T19:53:55.295Z,87.46
2019-04-29T19:59:10.388Z,87.55
2019-04-29T20:04:17.616Z,87.95
2019-04-29T20:09:23.042Z,87.74
2019-04-29T20:14:33.428Z,87.11
2019-04-29T20:19:37.897Z,87.14
2019-04-29T20:24:49.669Z,86.88
2019-04-29T20:29:51.063Z,86.89
2019-04-29T20:35:05.268Z,86.93
2019-04-29T20:40:06.652Z,86.99
2019-04-29T20:45:12.780Z,86.25
2019-04-29T20:50:18.669Z,86.68
2019-04-29T20:55:24.415Z,86.96
2019-04-29T21:00:31.569Z,87.49
2019-04-29T21:05:47.444Z,87.16
2019-04-29T21:10:46.734Z,87.37
2019-04-29T21:15:56.043Z,87.16
2019-04-29T21:21:04.540Z,87.19
2019-04-29T21:26:08.902Z,86.88
2019-04-29T21:31:18.544Z,87.57
2019-04-29T21:36:26.503Z,87.55
2019-04-29T21:41:35.891Z,88.12
2019-04-29T21:46:41.487Z,87.58
2019-04-29T21:51:49.801Z,87.87
2019-04-29T21:56:55.626Z,87.77
2019-04-29T22:02:01.493Z,87.61
2019-04-29T22:07:08.646Z,88.79
2019-04-29T22:12:20.168Z,88.54
2019-04-29T22:17:21.423Z,87.66
2019-04-29T22:22:30.659Z,88.16
2019-04-29T22:27:39.179Z,88.40
2019-04-29T22:32:41.896Z,87.69
2019-04-29T22:37:47.534Z,87.53
2019-04-29T22:43:08.384Z,87.75
2019-04-29T22:48:16.861Z,87.25
2019-04-29T22:53:17.984Z,87.88
2019-04-29T22:58:24.909Z,88.44
2019-04-29T23:03:32.717Z,88.57
2019-04-29T23:08:38.668Z,89.25
2019-04-29T23:13:46.161Z,88.12
2019-04-29T23:18:51.464Z,88.61
2019-04-29T23:24:01.744Z,87.93
2019-04-29T23:29:07.433Z,87.98
2019-04-29T23:34:12.944Z,88.02
2019-04-29T23:39:18.465Z,88.28
2019-04-29T23:44:23.963Z,88.87
2019-04-29T23:49:29.403Z,89.26
2019-04-29T23:54:44.266Z,88.97
